Time;durP1;ratioP1;P1;durP2;ratioP2;P2;SDS_P1;SDS_P2;PMS_P1;PMS_P2;Temp;Humidity;BMP_temperature;BMP_pressure;BME280_temperature;BME280_humidity;BME280_pressure;Samples;Min_cycle;Max_cycle;Signal;HPM_P1;HPM_P2
2021/10/13 00:00:08;;;;;;;;;;;11.30;96.90;11.50;100014.00;;;;348767;27;89716;-92
2021/10/13 00:00:20;;;;;;;;;;;11.30;96.90;11.60;100015.00;;;;348922;27;82574;-91
2021/10/13 00:00:31;;;;;;;;;;;11.30;97.00;11.50;100015.00;;;;345881;28;90980;-92
2021/10/13 00:00:43;;;;;;;;;;;11.30;97.00;11.60;100011.00;;;;346315;28;82446;-92
2021/10/13 00:00:55;;;;;;;;;;;11.30;97.00;11.50;100012.00;;;;347330;28;90181;-93
2021/10/13 00:01:08;;;;;;;;;;;11.30;97.10;11.60;100013.00;;;;347577;28;83449;-92
2021/10/13 00:01:20;;;;;;;;;;;11.30;97.10;11.60;100014.00;;;;345856;28;90407;-92
2021/10/13 00:01:32;;;;;;;;;;;11.30;97.00;11.60;100014.00;;;;346016;28;83252;-92
2021/10/13 00:01:44;;;;;;;;;;;11.30;97.00;11.60;100020.00;;;;346939;28;91319;-92
2021/10/13 00:01:56;;;;;;;;;;;11.30;97.00;11.60;100022.00;;;;347590;28;83448;-92
2021/10/13 00:02:09;;;;;;;;;;;11.30;97.10;11.60;100016.00;;;;348379;27;90478;-91
2021/10/13 00:02:21;;;;;;;;;;;11.30;97.00;11.60;100019.00;;;;347642;28;82506;-91
2021/10/13 00:02:32;;;;;;;;;;;11.30;97.00;11.60;100023.00;;;;347189;28;90612;-91
2021/10/13 00:02:44;;;;;;;;;;;11.30;97.00;11.60;100024.00;;;;349130;27;82487;-92
2021/10/13 00:02:56;;;;;;;;;;;11.30;97.00;11.60;100016.00;;;;345689;28;90702;-92
2021/10/13 00:03:08;;;;;;;;;;;11.30;96.90;11.70;100021.00;;;;344965;28;82405;-92
2021/10/13 00:03:20;;;;;;;;;;;11.30;97.00;11.70;100028.00;;;;344337;28;91476;-92
2021/10/13 00:03:32;;;;;;;;;;;11.30;97.00;11.60;100028.00;;;;346370;28;82512;-92
2021/10/13 00:03:44;;;;;;;;;;;11.30;97.00;11.60;100020.00;;;;345828;28;92612;-92
2021/10/13 00:03:56;;;;;;;;;;;11.30;97.00;11.60;100018.00;;;;346262;28;83567;-91
2021/10/13 00:04:07;;;;;;;;;;;11.30;97.00;11.60;100017.00;;;;344383;28;91286;-92
2021/10/13 00:04:19;;;;;;;;;;;11.30;97.00;11.60;100019.00;;;;344915;28;82520;-92
2021/10/13 00:04:31;;;;;;;;;;;11.30;97.00;11.60;100020.00;;;;344420;28;91509;-92
2021/10/13 00:04:43;;;;;;;;;;;11.30;97.00;11.60;100019.00;;;;344986;28;83463;-92
2021/10/13 00:04:55;;;;;;;;;;;11.30;97.10;11.60;100020.00;;;;345841;28;91575;-92
2021/10/13 00:05:07;;;;;;;;;;;11.30;97.10;11.60;100021.00;;;;343494;28;82545;-92
2021/10/13 00:05:19;;;;;;;;;;;11.30;97.10;11.60;100016.00;;;;344543;28;90026;-92
2021/10/13 00:05:31;;;;;;;;;;;11.30;97.10;11.60;100020.00;;;;346235;28;82571;-92
2021/10/13 00:05:43;;;;;;;;;;;11.30;97.10;11.60;100015.00;;;;344479;28;91276;-92
2021/10/13 00:05:55;;;;;;;;;;;11.30;97.00;11.70;100022.00;;;;346207;28;82560;-91
2021/10/13 00:06:06;;;;;;;;;;;11.30;97.00;11.70;100008.00;;;;344465;28;90171;-93
2021/10/13 00:06:18;;;;;;;;;;;11.30;97.00;11.70;100018.00;;;;346114;28;83472;-92
2021/10/13 00:06:30;;;;;;;;;;;11.30;97.00;11.70;100010.00;;;;347156;28;89924;-92
2021/10/13 00:06:42;;;;;;;;;;;11.30;97.10;11.70;100018.00;;;;346074;28;83532;-93
2021/10/13 00:06:53;;;;;;;;;;;11.30;97.10;11.70;100017.00;;;;346412;28;91758;-91
2021/10/13 00:07:05;;;;;;;;;;;11.30;97.10;11.70;100020.00;;;;344821;28;82544;-92
2021/10/13 00:07:17;;;;;;;;;;;11.30;97.00;11.70;100017.00;;;;347206;27;90357;-92
2021/10/13 00:07:29;;;;;;;;;;;11.30;97.10;11.70;100020.00;;;;347744;28;82561;-92
2021/10/13 00:07:40;;;;;;;;;;;11.30;97.10;11.70;100022.00;;;;347032;28;91739;-92
2021/10/13 00:07:52;;;;;;;;;;;11.30;97.10;11.70;100024.00;;;;348912;27;83485;-92
2021/10/13 00:08:04;;;;;;;;;;;11.30;97.10;11.80;100020.00;;;;344638;28;90220;-92
2021/10/13 00:08:16;;;;;;;;;;;11.30;97.10;11.70;100020.00;;;;343617;28;83303;-92
2021/10/13 00:08:28;;;;;;;;;;;11.30;97.10;11.70;100014.00;;;;345920;28;90221;-92
2021/10/13 00:08:40;;;;;;;;;;;11.30;97.00;11.70;100019.00;;;;346311;28;82553;-93
2021/10/13 00:08:51;;;;;;;;;;;11.30;97.00;11.70;100017.00;;;;344281;28;90280;-93
2021/10/13 00:09:03;;;;;;;;;;;11.30;96.90;11.70;100013.00;;;;344990;28;83364;-91
2021/10/13 00:09:15;;;;;;;;;;;11.30;96.90;11.60;100014.00;;;;347028;27;90445;-92
2021/10/13 00:09:27;;;;;;;;;;;11.30;96.90;11.70;100018.00;;;;345915;28;83638;-92
2021/10/13 00:09:38;;;;;;;;;;;11.30;96.90;11.60;100017.00;;;;347236;28;90939;-91
2021/10/13 00:09:50;;;;;;;;;;;11.30;96.90;11.60;100019.00;;;;344810;28;83403;-92
2021/10/13 00:10:02;;;;;;;;;;;11.30;96.90;11.70;100017.00;;;;344436;28;91637;-92
2021/10/13 00:10:14;;;;;;;;;;;11.30;96.90;11.70;100021.00;;;;344798;28;83970;-92
2021/10/13 00:10:26;;;;;;;;;;;11.30;97.00;11.80;100015.00;;;;343110;28;90233;-91
2021/10/13 00:10:38;;;;;;;;;;;11.30;97.00;11.80;100015.00;;;;346266;28;83459;-92
2021/10/13 00:10:50;;;;;;;;;;;11.30;97.00;11.70;100009.00;;;;347012;28;90918;-92
2021/10/13 00:11:01;;;;;;;;;;;11.30;97.00;11.70;100019.00;;;;346328;28;83397;-92
2021/10/13 00:11:14;;;;;;;;;;;11.40;97.00;11.70;100016.00;;;;344399;28;91604;-92
2021/10/13 00:11:26;;;;;;;;;;;11.30;97.00;11.50;100018.00;;;;346233;28;83392;-92
2021/10/13 00:11:38;;;;;;;;;;;11.40;97.00;11.60;100015.00;;;;347192;28;92354;-91
2021/10/13 00:11:50;;;;;;;;;;;11.30;96.90;11.60;100011.00;;;;344818;28;82491;-92
2021/10/13 00:12:02;;;;;;;;;;;11.30;96.90;11.70;100008.00;;;;347236;28;90089;-91
2021/10/13 00:12:14;;;;;;;;;;;11.30;97.00;11.70;100017.00;;;;346299;28;82544;-92
2021/10/13 00:12:26;;;;;;;;;;;11.30;97.00;11.70;100012.00;;;;345174;28;89443;-93
2021/10/13 00:12:37;;;;;;;;;;;11.30;97.00;11.60;100020.00;;;;346189;28;82438;-92
2021/10/13 00:12:49;;;;;;;;;;;11.30;97.10;11.50;100017.00;;;;347270;28;91430;-92
2021/10/13 00:13:01;;;;;;;;;;;11.30;97.00;11.60;100016.00;;;;347642;28;83343;-92
2021/10/13 00:13:13;;;;;;;;;;;11.30;97.00;11.50;100014.00;;;;345737;28;91123;-93
2021/10/13 00:13:25;;;;;;;;;;;11.30;97.00;11.50;100015.00;;;;346180;28;83390;-91
2021/10/13 00:13:37;;;;;;;;;;;11.30;97.10;11.50;100016.00;;;;345753;28;92342;-91
2021/10/13 00:13:49;;;;;;;;;;;11.30;97.00;11.60;100016.00;;;;344803;28;82525;-92
2021/10/13 00:14:01;;;;;;;;;;;11.30;97.00;11.60;100005.00;;;;347238;28;91176;-91
2021/10/13 00:14:13;;;;;;;;;;;11.30;97.00;11.60;100007.00;;;;347600;28;83393;-92
2021/10/13 00:14:25;;;;;;;;;;;11.30;97.10;11.60;100014.00;;;;345835;28;90458;-92
2021/10/13 00:14:36;;;;;;;;;;;11.30;97.10;11.70;100020.00;;;;347547;27;83490;-91
2021/10/13 00:14:48;;;;;;;;;;;11.30;97.10;11.70;100007.00;;;;345788;28;91264;-92
2021/10/13 00:15:05;;;;;;;;;;;11.30;97.10;11.60;100011.00;;;;346249;28;83396;-92
2021/10/13 00:15:16;;;;;;;;;;;11.30;97.10;11.70;100011.00;;;;346995;28;89592;-91
2021/10/13 00:15:29;;;;;;;;;;;11.30;97.10;11.70;100016.00;;;;346814;28;82688;-92
2021/10/13 00:15:41;;;;;;;;;;;11.30;97.10;11.70;100008.00;;;;345453;28;91521;-92
2021/10/13 00:15:53;;;;;;;;;;;11.30;97.10;11.80;100016.00;;;;346927;28;83417;-92
2021/10/13 00:16:05;;;;;;;;;;;11.30;97.10;11.80;100014.00;;;;347222;28;91702;-92
2021/10/13 00:16:18;;;;;;;;;;;11.30;97.00;11.80;100008.00;;;;347408;28;82569;-92
2021/10/13 00:16:31;;;;;;;;;;;11.30;97.00;11.80;100010.00;;;;345696;28;90662;-92
2021/10/13 00:16:51;;;;;;;;;;;11.30;97.10;11.70;100013.00;;;;347638;28;83431;-92
2021/10/13 00:17:05;;;;;;;;;;;11.30;97.10;11.70;100011.00;;;;345793;28;90851;-92
2021/10/13 00:17:18;;;;;;;;;;;11.40;97.10;11.60;100006.00;;;;346082;28;83472;-92
2021/10/13 00:17:29;;;;;;;;;;;11.40;97.10;11.60;100009.00;;;;345608;28;89441;-92
2021/10/13 00:17:41;;;;;;;;;;;11.30;97.10;11.70;100011.00;;;;347340;28;83497;-92
2021/10/13 00:17:53;;;;;;;;;;;11.30;97.10;11.70;100012.00;;;;346922;27;91699;-91
2021/10/13 00:18:05;;;;;;;;;;;11.30;97.10;11.70;100005.00;;;;344929;28;82487;-91
2021/10/13 00:18:17;;;;;;;;;;;11.30;97.10;11.80;100016.00;;;;346945;28;91321;-92
2021/10/13 00:18:29;;;;;;;;;;;11.30;97.10;11.70;100008.00;;;;347364;28;83365;-92
2021/10/13 00:18:41;;;;;;;;;;;11.30;97.10;11.70;100007.00;;;;344185;28;90667;-91
2021/10/13 00:18:52;;;;;;;;;;;11.40;97.10;11.70;100009.00;;;;347289;28;82598;-92
2021/10/13 00:19:04;;;;;;;;;;;11.30;97.10;11.70;100014.00;;;;348345;27;89525;-92
2021/10/13 00:19:16;;;;;;;;;;;11.40;97.10;11.70;100005.00;;;;348919;27;83477;-93
2021/10/13 00:19:28;;;;;;;;;;;11.40;97.10;11.80;100006.00;;;;345711;28;91975;-92
2021/10/13 00:19:40;;;;;;;;;;;11.30;97.10;11.80;100004.00;;;;347619;28;83326;-92
2021/10/13 00:19:52;;;;;;;;;;;11.40;97.10;11.70;99999.00;;;;345726;28;91939;-92
2021/10/13 00:20:04;;;;;;;;;;;11.40;97.00;11.60;100013.00;;;;346233;28;83437;-91
2021/10/13 00:20:16;;;;;;;;;;;11.30;97.00;11.60;100013.00;;;;347170;28;91314;-91
2021/10/13 00:20:28;;;;;;;;;;;11.40;97.00;11.60;100006.00;;;;346173;28;82500;-91
2021/10/13 00:20:40;;;;;;;;;;;11.40;97.00;11.70;100014.00;;;;347111;28;90135;-91
2021/10/13 00:20:52;;;;;;;;;;;11.30;97.00;11.70;100001.00;;;;346040;28;82673;-91
2021/10/13 00:21:03;;;;;;;;;;;11.30;97.10;11.70;100005.00;;;;345846;28;90636;-92
2021/10/13 00:21:15;;;;;;;;;;;11.30;97.10;11.70;100011.00;;;;346006;28;83510;-92
2021/10/13 00:21:27;;;;;;;;;;;11.40;97.10;11.70;100011.00;;;;347164;27;91334;-92
2021/10/13 00:21:39;;;;;;;;;;;11.30;97.10;11.70;100011.00;;;;347534;28;83494;-92
2021/10/13 00:21:50;;;;;;;;;;;11.30;97.10;11.70;100010.00;;;;348390;27;91355;-91
2021/10/13 00:22:02;;;;;;;;;;;11.40;97.10;11.70;100013.00;;;;346211;28;83477;-92
2021/10/13 00:22:14;;;;;;;;;;;11.30;97.10;11.80;100007.00;;;;347217;28;90394;-92
2021/10/13 00:22:26;;;;;;;;;;;11.40;97.10;11.70;100011.00;;;;346141;28;83607;-92
2021/10/13 00:22:38;;;;;;;;;;;11.40;97.10;11.80;100010.00;;;;345672;28;91398;-92
2021/10/13 00:22:50;;;;;;;;;;;11.40;97.10;11.80;100008.00;;;;347641;28;82490;-92
2021/10/13 00:23:01;;;;;;;;;;;11.40;97.10;11.80;100001.00;;;;344462;28;91274;-91
2021/10/13 00:23:13;;;;;;;;;;;11.40;97.10;11.80;100012.00;;;;344894;28;82483;-93
2021/10/13 00:23:25;;;;;;;;;;;11.40;97.10;11.70;100009.00;;;;345785;28;91377;-92
2021/10/13 00:23:37;;;;;;;;;;;11.40;97.10;11.70;100007.00;;;;349046;27;83414;-92
2021/10/13 00:23:49;;;;;;;;;;;11.40;97.10;11.70;100006.00;;;;347072;28;91181;-92
2021/10/13 00:24:01;;;;;;;;;;;11.40;97.10;11.70;100007.00;;;;347590;28;83450;-92
2021/10/13 00:24:12;;;;;;;;;;;11.40;97.10;11.70;100006.00;;;;345727;28;90902;-92
2021/10/13 00:24:24;;;;;;;;;;;11.40;97.00;11.80;100008.00;;;;348889;27;82533;-92
2021/10/13 00:24:36;;;;;;;;;;;11.40;97.10;11.70;100005.00;;;;347055;28;91528;-93
2021/10/13 00:24:48;;;;;;;;;;;11.40;97.10;11.70;100013.00;;;;349083;27;83388;-92
2021/10/13 00:25:00;;;;;;;;;;;11.40;97.00;11.70;100009.00;;;;345848;28;89086;-92
2021/10/13 00:25:12;;;;;;;;;;;11.40;97.00;11.70;100010.00;;;;344799;28;83417;-92
2021/10/13 00:25:23;;;;;;;;;;;11.40;97.00;11.70;100002.00;;;;344406;28;91545;-92
2021/10/13 00:25:35;;;;;;;;;;;11.40;97.00;11.70;100003.00;;;;344909;28;82450;-92
2021/10/13 00:25:47;;;;;;;;;;;11.40;97.10;11.80;100008.00;;;;344350;28;91318;-92
2021/10/13 00:25:59;;;;;;;;;;;11.40;97.10;11.70;100005.00;;;;346208;28;83437;-93
2021/10/13 00:26:10;;;;;;;;;;;11.40;97.10;11.80;100010.00;;;;346968;28;90551;-91
2021/10/13 00:26:22;;;;;;;;;;;11.40;97.10;11.80;100009.00;;;;347689;28;82441;-92
2021/10/13 00:26:34;;;;;;;;;;;11.40;97.10;11.80;100011.00;;;;345703;28;91792;-92
2021/10/13 00:26:46;;;;;;;;;;;11.40;97.10;11.80;100003.00;;;;344746;28;83371;-90
2021/10/13 00:26:58;;;;;;;;;;;11.40;97.10;11.80;100001.00;;;;344336;28;91536;-91
2021/10/13 00:27:09;;;;;;;;;;;11.40;97.10;11.80;100007.00;;;;346234;28;83369;-92
2021/10/13 00:27:21;;;;;;;;;;;11.40;97.00;11.80;100006.00;;;;347175;28;91445;-91
2021/10/13 00:27:33;;;;;;;;;;;11.40;97.00;11.70;99996.00;;;;346241;28;83383;-90
2021/10/13 00:27:45;;;;;;;;;;;11.40;97.00;11.70;100002.00;;;;345748;28;92195;-92
2021/10/13 00:27:57;;;;;;;;;;;11.40;97.00;11.80;100010.00;;;;344715;28;82578;-91
2021/10/13 00:28:09;;;;;;;;;;;11.40;97.00;11.80;100001.00;;;;345771;28;91912;-92
2021/10/13 00:28:21;;;;;;;;;;;11.40;97.00;11.70;100008.00;;;;346268;28;83331;-92
2021/10/13 00:28:33;;;;;;;;;;;11.40;97.00;11.70;100004.00;;;;342959;28;90167;-92
2021/10/13 00:28:45;;;;;;;;;;;11.40;97.00;11.70;100001.00;;;;346177;28;83301;-92
2021/10/13 00:28:56;;;;;;;;;;;11.40;97.00;11.70;100004.00;;;;345860;28;90270;-92
2021/10/13 00:29:08;;;;;;;;;;;11.40;97.00;11.80;100003.00;;;;346197;28;82560;-92
2021/10/13 00:29:20;;;;;;;;;;;11.40;97.00;11.70;100001.00;;;;348576;27;91659;-92
2021/10/13 00:29:34;;;;;;;;;;;11.40;97.10;11.70;100002.00;;;;346207;28;83480;-92
2021/10/13 00:29:45;;;;;;;;;;;11.40;97.10;11.80;100001.00;;;;345405;28;90423;-92
2021/10/13 00:29:57;;;;;;;;;;;11.40;97.10;11.80;100001.00;;;;346137;28;83464;-92
2021/10/13 00:30:09;;;;;;;;;;;11.40;97.10;11.70;100004.00;;;;344448;28;90496;-92
2021/10/13 00:30:21;;;;;;;;;;;11.40;97.10;11.70;100003.00;;;;346118;28;82415;-92
2021/10/13 00:30:33;;;;;;;;;;;11.40;97.00;11.60;100006.00;;;;342865;28;91658;-92
2021/10/13 00:30:45;;;;;;;;;;;11.30;97.00;11.70;99993.00;;;;346216;28;83405;-92
2021/10/13 00:30:57;;;;;;;;;;;11.40;97.10;11.70;99999.00;;;;343032;28;91711;-92
2021/10/13 00:31:08;;;;;;;;;;;11.30;97.10;11.60;99999.00;;;;344783;28;83362;-92
2021/10/13 00:31:20;;;;;;;;;;;11.40;97.10;11.60;99997.00;;;;345715;28;91616;-92
2021/10/13 00:31:32;;;;;;;;;;;11.40;97.10;11.70;100007.00;;;;346143;28;83520;-92
2021/10/13 00:31:44;;;;;;;;;;;11.40;97.10;11.70;100004.00;;;;345536;28;91432;-93
2021/10/13 00:31:56;;;;;;;;;;;11.30;97.10;11.50;100002.00;;;;346142;28;82572;-92
2021/10/13 00:32:08;;;;;;;;;;;11.30;97.10;11.50;100001.00;;;;345831;28;90246;-91
2021/10/13 00:32:19;;;;;;;;;;;11.30;97.10;11.50;99997.00;;;;346268;28;82461;-92
2021/10/13 00:32:31;;;;;;;;;;;11.30;97.10;11.50;100007.00;;;;345710;28;90223;-92
2021/10/13 00:32:43;;;;;;;;;;;11.30;97.20;11.60;100006.00;;;;346171;28;83453;-92
2021/10/13 00:32:55;;;;;;;;;;;11.30;97.20;11.60;100006.00;;;;345609;28;91737;-91
2021/10/13 00:33:07;;;;;;;;;;;11.30;97.20;11.60;100012.00;;;;346107;28;83372;-92
2021/10/13 00:33:18;;;;;;;;;;;11.30;97.20;11.60;100003.00;;;;347011;27;90428;-92
2021/10/13 00:33:30;;;;;;;;;;;11.30;97.20;11.70;100014.00;;;;347330;27;83627;-91
2021/10/13 00:33:43;;;;;;;;;;;11.30;97.30;11.70;100011.00;;;;344191;28;91447;-92
2021/10/13 00:33:54;;;;;;;;;;;11.30;97.30;11.70;100006.00;;;;344789;28;83569;-91
2021/10/13 00:34:06;;;;;;;;;;;11.30;97.30;11.70;100005.00;;;;344266;28;90082;-92
2021/10/13 00:34:18;;;;;;;;;;;11.30;97.30;11.70;100006.00;;;;344842;28;83273;-92
2021/10/13 00:34:31;;;;;;;;;;;11.30;97.30;11.70;100008.00;;;;345493;28;90741;-92
2021/10/13 00:34:43;;;;;;;;;;;11.30;97.30;11.70;100002.00;;;;344660;28;83479;-92
2021/10/13 00:34:55;;;;;;;;;;;11.30;97.20;11.60;100005.00;;;;345765;28;91312;-91
2021/10/13 00:35:07;;;;;;;;;;;11.40;97.30;11.60;100013.00;;;;348984;27;83351;-92
2021/10/13 00:35:19;;;;;;;;;;;11.30;97.20;11.60;100004.00;;;;344394;28;91883;-92
2021/10/13 00:35:30;;;;;;;;;;;11.30;97.20;11.60;100006.00;;;;346151;28;83264;-92
2021/10/13 00:35:42;;;;;;;;;;;11.30;97.20;11.70;100013.00;;;;345606;28;91740;-92
2021/10/13 00:35:54;;;;;;;;;;;11.30;97.20;11.70;100004.00;;;;347198;27;83520;-91
2021/10/13 00:36:06;;;;;;;;;;;11.30;97.30;11.70;100004.00;;;;347164;28;91161;-92
2021/10/13 00:36:17;;;;;;;;;;;11.30;97.30;11.80;100006.00;;;;347389;28;83238;-92
2021/10/13 00:36:29;;;;;;;;;;;11.30;97.30;11.80;100018.00;;;;345682;28;91564;-93
2021/10/13 00:36:41;;;;;;;;;;;11.30;97.30;11.70;100000.00;;;;347587;28;82507;-92
2021/10/13 00:36:53;;;;;;;;;;;11.30;97.20;11.80;100011.00;;;;346975;28;90455;-92
2021/10/13 00:37:05;;;;;;;;;;;11.30;97.20;11.80;100006.00;;;;346042;28;83496;-92
2021/10/13 00:37:18;;;;;;;;;;;11.30;97.20;11.80;100004.00;;;;344294;28;90419;-92
2021/10/13 00:37:30;;;;;;;;;;;11.40;97.30;11.80;100009.00;;;;344850;28;82469;-92
2021/10/13 00:37:41;;;;;;;;;;;11.30;97.30;11.80;100007.00;;;;345745;28;91809;-92
2021/10/13 00:37:53;;;;;;;;;;;11.40;97.30;11.80;100006.00;;;;347247;28;84343;-92
2021/10/13 00:38:05;;;;;;;;;;;11.40;97.30;11.70;100004.00;;;;345794;28;91411;-92
2021/10/13 00:38:17;;;;;;;;;;;11.40;97.50;11.80;100008.00;;;;346122;28;83358;-92
2021/10/13 00:38:29;;;;;;;;;;;11.40;97.20;11.80;100007.00;;;;347173;28;91788;-92
2021/10/13 00:38:41;;;;;;;;;;;11.40;97.20;11.80;100008.00;;;;346141;28;83398;-92
2021/10/13 00:38:52;;;;;;;;;;;11.40;97.20;11.80;100004.00;;;;344199;28;90524;-92
2021/10/13 00:39:04;;;;;;;;;;;11.40;97.20;11.70;100000.00;;;;344838;28;83340;-92
2021/10/13 00:39:16;;;;;;;;;;;11.40;97.20;11.70;100013.00;;;;345680;28;90348;-92
2021/10/13 00:39:28;;;;;;;;;;;11.40;97.10;11.70;100010.00;;;;345759;28;83602;-92
2021/10/13 00:39:40;;;;;;;;;;;11.40;97.10;11.80;100007.00;;;;346782;28;90622;-92
2021/10/13 00:39:51;;;;;;;;;;;11.40;97.10;11.80;100007.00;;;;347513;28;83438;-91
2021/10/13 00:40:05;;;;;;;;;;;11.40;97.10;11.80;100005.00;;;;346970;28;91314;-92
2021/10/13 00:40:16;;;;;;;;;;;11.40;97.10;11.80;100000.00;;;;346253;28;83193;-92
2021/10/13 00:40:29;;;;;;;;;;;11.40;97.10;11.80;100008.00;;;;348002;27;90079;-93
2021/10/13 00:40:41;;;;;;;;;;;11.40;97.10;11.80;100009.00;;;;346004;28;82619;-92
2021/10/13 00:40:53;;;;;;;;;;;11.40;97.10;11.80;100013.00;;;;347223;28;91265;-91
2021/10/13 00:41:05;;;;;;;;;;;11.40;97.10;11.70;100006.00;;;;346186;28;83522;-92
2021/10/13 00:41:16;;;;;;;;;;;11.40;97.00;11.70;100008.00;;;;345681;28;91828;-92
2021/10/13 00:41:28;;;;;;;;;;;11.40;97.00;11.60;100004.00;;;;346186;28;83791;-92
2021/10/13 00:41:40;;;;;;;;;;;11.40;97.20;11.70;100006.00;;;;345433;28;91791;-92
2021/10/13 00:41:52;;;;;;;;;;;11.40;97.10;11.70;100013.00;;;;348927;27;83162;-92
2021/10/13 00:42:03;;;;;;;;;;;11.40;97.10;11.80;100010.00;;;;345422;28;90661;-91
2021/10/13 00:42:15;;;;;;;;;;;11.40;97.10;11.80;100009.00;;;;344809;28;83382;-92
2021/10/13 00:42:27;;;;;;;;;;;11.40;97.10;11.80;100003.00;;;;345477;28;90578;-92
2021/10/13 00:42:39;;;;;;;;;;;11.40;97.10;11.80;100005.00;;;;347460;28;83275;-93
2021/10/13 00:42:51;;;;;;;;;;;11.40;97.10;11.80;100017.00;;;;347097;28;89110;-92
2021/10/13 00:43:03;;;;;;;;;;;11.40;97.10;11.80;100015.00;;;;347411;28;82579;-92
2021/10/13 00:43:14;;;;;;;;;;;11.40;97.20;11.80;100009.00;;;;344324;28;91497;-92
2021/10/13 00:43:26;;;;;;;;;;;11.40;97.20;11.80;100014.00;;;;346180;28;82477;-92
2021/10/13 00:43:38;;;;;;;;;;;11.40;97.30;11.80;100012.00;;;;345707;28;92192;-91
2021/10/13 00:43:50;;;;;;;;;;;11.40;97.20;11.80;100006.00;;;;344711;28;83289;-91
2021/10/13 00:44:01;;;;;;;;;;;11.40;97.20;11.80;100002.00;;;;344373;28;91335;-92
2021/10/13 00:44:13;;;;;;;;;;;11.40;97.20;11.80;100007.00;;;;346146;28;83450;-92
2021/10/13 00:44:25;;;;;;;;;;;11.40;97.10;11.80;99999.00;;;;345774;28;91163;-92
2021/10/13 00:44:37;;;;;;;;;;;11.50;97.10;11.80;99998.00;;;;346091;28;83225;-91
2021/10/13 00:44:49;;;;;;;;;;;11.50;97.10;11.80;100004.00;;;;347148;28;90313;-92
2021/10/13 00:45:01;;;;;;;;;;;11.50;97.00;11.80;100009.00;;;;350171;27;83425;-91
2021/10/13 00:45:12;;;;;;;;;;;11.40;97.00;11.80;100007.00;;;;348543;27;90439;-91
2021/10/13 00:45:24;;;;;;;;;;;11.40;97.10;11.80;100011.00;;;;346426;28;83627;-91
2021/10/13 00:45:36;;;;;;;;;;;11.50;97.10;11.70;100007.00;;;;345774;28;92340;-91
2021/10/13 00:45:49;;;;;;;;;;;11.40;97.10;11.60;100004.00;;;;345985;28;82596;-92
2021/10/13 00:46:01;;;;;;;;;;;11.40;97.00;11.60;100005.00;;;;345677;28;91415;-92
2021/10/13 00:46:13;;;;;;;;;;;11.40;97.00;11.70;100010.00;;;;346019;28;83369;-92
2021/10/13 00:46:25;;;;;;;;;;;11.40;97.10;11.70;100006.00;;;;348308;27;90517;-92
2021/10/13 00:46:37;;;;;;;;;;;11.40;97.10;11.80;100008.00;;;;348856;27;83965;-92
2021/10/13 00:46:49;;;;;;;;;;;11.40;97.20;11.80;100009.00;;;;345598;28;90553;-92
2021/10/13 00:47:00;;;;;;;;;;;11.40;97.20;11.80;100009.00;;;;347600;28;83410;-92
2021/10/13 00:47:12;;;;;;;;;;;11.40;97.20;11.80;100005.00;;;;348494;27;90211;-93
2021/10/13 00:47:24;;;;;;;;;;;11.50;97.20;11.80;100006.00;;;;346255;28;82470;-91
2021/10/13 00:47:36;;;;;;;;;;;11.40;97.20;11.80;100004.00;;;;345715;28;91794;-92
2021/10/13 00:47:48;;;;;;;;;;;11.40;97.20;11.80;100006.00;;;;346248;28;82572;-92
2021/10/13 00:48:00;;;;;;;;;;;11.40;97.20;11.70;100003.00;;;;347113;27;91616;-92
2021/10/13 00:48:11;;;;;;;;;;;11.40;97.20;11.70;100010.00;;;;347629;28;82494;-91
2021/10/13 00:48:23;;;;;;;;;;;11.40;97.10;11.80;100008.00;;;;347065;28;91185;-92
2021/10/13 00:48:35;;;;;;;;;;;11.40;97.20;11.80;100006.00;;;;344675;28;83493;-92
2021/10/13 00:48:47;;;;;;;;;;;11.40;97.20;11.80;100004.00;;;;346974;28;91234;-92
2021/10/13 00:48:59;;;;;;;;;;;11.40;97.40;11.80;100004.00;;;;349094;27;82452;-92
2021/10/13 00:49:11;;;;;;;;;;;11.40;97.20;11.80;100009.00;;;;345709;28;91714;-92
2021/10/13 00:49:24;;;;;;;;;;;11.40;97.20;11.90;100007.00;;;;348956;27;83325;-92
2021/10/13 00:49:37;;;;;;;;;;;11.50;97.20;11.90;100004.00;;;;348535;27;91713;-93
2021/10/13 00:49:49;;;;;;;;;;;11.50;97.20;11.90;100016.00;;;;344768;28;82575;-92
2021/10/13 00:50:03;;;;;;;;;;;11.50;97.20;11.90;100008.00;;;;343022;28;90789;-92
2021/10/13 00:50:15;;;;;;;;;;;11.50;97.10;11.90;100013.00;;;;343458;28;83345;-93
2021/10/13 00:50:27;;;;;;;;;;;11.50;97.10;11.80;100006.00;;;;344452;28;91710;-92
2021/10/13 00:50:38;;;;;;;;;;;11.50;97.00;11.90;100007.00;;;;347525;28;83381;-92
2021/10/13 00:50:50;;;;;;;;;;;11.50;97.00;11.80;100006.00;;;;347197;28;90209;-92
2021/10/13 00:51:02;;;;;;;;;;;11.50;97.00;11.70;100003.00;;;;346194;28;82420;-92
2021/10/13 00:51:14;;;;;;;;;;;11.50;97.00;11.80;100013.00;;;;345491;28;90490;-92
2021/10/13 00:51:25;;;;;;;;;;;11.50;97.10;11.90;100009.00;;;;347271;28;83446;-92
2021/10/13 00:51:37;;;;;;;;;;;11.50;97.10;11.90;100012.00;;;;347104;28;92533;-91
2021/10/13 00:51:49;;;;;;;;;;;11.50;97.10;11.90;100009.00;;;;346124;28;83513;-92
2021/10/13 00:52:01;;;;;;;;;;;11.50;97.10;11.90;100005.00;;;;347115;28;90225;-91
2021/10/13 00:52:15;;;;;;;;;;;11.50;97.20;11.90;99991.00;;;;343383;28;83366;-91
2021/10/13 00:52:27;;;;;;;;;;;11.50;97.10;12.00;100011.00;;;;345741;28;91503;-91
2021/10/13 00:52:40;;;;;;;;;;;11.50;97.10;12.00;100006.00;;;;345952;28;83544;-93
2021/10/13 00:52:52;;;;;;;;;;;11.50;97.10;12.00;100014.00;;;;345650;28;89864;-92
2021/10/13 00:53:03;;;;;;;;;;;11.50;97.10;12.00;100005.00;;;;347568;28;83397;-92
2021/10/13 00:53:15;;;;;;;;;;;11.60;97.10;11.90;100008.00;;;;345516;28;90791;-92
2021/10/13 00:53:30;;;;;;;;;;;11.60;97.10;11.90;100008.00;;;;345976;28;83491;-92
2021/10/13 00:53:57;;;;;;;;;;;11.60;97.10;11.90;100008.00;;;;345516;28;91033;-92
2021/10/13 00:54:09;;;;;;;;;;;11.60;97.10;11.90;100006.00;;;;346089;28;83554;-92
2021/10/13 00:54:22;;;;;;;;;;;11.60;97.10;12.00;100006.00;;;;345804;28;91335;-92
2021/10/13 00:54:34;;;;;;;;;;;11.50;97.10;11.90;100004.00;;;;346183;28;83475;-91
2021/10/13 00:54:46;;;;;;;;;;;11.60;97.10;11.80;100004.00;;;;345816;28;90481;-91
2021/10/13 00:54:58;;;;;;;;;;;11.60;97.00;11.90;100009.00;;;;346221;28;83492;-91
2021/10/13 00:55:17;;;;;;;;;;;11.60;97.00;11.80;100006.00;;;;347063;27;91761;-92
2021/10/13 00:55:29;;;;;;;;;;;11.60;97.00;12.00;100007.00;;;;346295;28;83431;-92
2021/10/13 00:55:41;;;;;;;;;;;11.60;97.10;12.00;100006.00;;;;345667;28;89412;-91
2021/10/13 00:55:53;;;;;;;;;;;11.60;97.10;12.00;100002.00;;;;347470;28;83499;-92
2021/10/13 00:56:05;;;;;;;;;;;11.60;97.10;12.00;100005.00;;;;345706;28;93083;-92
2021/10/13 00:56:17;;;;;;;;;;;11.60;97.10;12.00;100010.00;;;;344776;28;83414;-92
2021/10/13 00:56:28;;;;;;;;;;;11.60;97.10;12.00;100006.00;;;;347231;28;90334;-91
2021/10/13 00:56:40;;;;;;;;;;;11.60;97.00;12.00;100003.00;;;;345971;28;83395;-93
2021/10/13 00:56:52;;;;;;;;;;;11.60;97.10;12.00;100000.00;;;;344447;28;90930;-92
2021/10/13 00:57:04;;;;;;;;;;;11.60;97.00;12.00;100000.00;;;;346366;28;83362;-92
2021/10/13 00:57:16;;;;;;;;;;;11.60;97.00;11.90;100006.00;;;;347152;28;91179;-92
2021/10/13 00:57:27;;;;;;;;;;;11.60;97.00;11.80;99996.00;;;;346141;28;82596;-92
2021/10/13 00:57:39;;;;;;;;;;;11.60;97.00;11.80;100004.00;;;;347477;28;87984;-91
2021/10/13 00:57:51;;;;;;;;;;;11.60;96.90;11.90;100006.00;;;;347598;28;83536;-91
2021/10/13 00:58:03;;;;;;;;;;;11.60;96.90;11.90;100009.00;;;;347331;28;90096;-92
2021/10/13 00:58:15;;;;;;;;;;;11.60;97.00;11.90;100005.00;;;;345096;28;83484;-92
2021/10/13 00:58:27;;;;;;;;;;;11.60;97.00;12.00;100003.00;;;;345922;28;90617;-92
2021/10/13 00:58:39;;;;;;;;;;;11.60;97.00;12.00;100001.00;;;;346281;28;83158;-92
2021/10/13 00:58:50;;;;;;;;;;;11.60;97.00;11.90;100000.00;;;;345893;28;91455;-92